sensor_id;sensor_type;location;lat;lon;timestamp;temperature;humidity
10889;DHT22;5497;51.388;6.780;2022-12-07T00:01:06;6.50;99.90
10889;DHT22;5497;51.388;6.780;2022-12-07T00:03:33;6.50;99.90
10889;DHT22;5497;51.388;6.780;2022-12-07T00:06:00;6.50;99.90
10889;DHT22;5497;51.388;6.780;2022-12-07T00:08:27;6.50;99.90
10889;DHT22;5497;51.388;6.780;2022-12-07T00:10:54;6.50;99.90
10889;DHT22;5497;51.388;6.780;2022-12-07T00:13:23;6.50;99.90
10889;DHT22;5497;51.388;6.780;2022-12-07T00:15:49;6.50;99.90
10889;DHT22;5497;51.388;6.780;2022-12-07T00:18:16;6.50;99.90
10889;DHT22;5497;51.388;6.780;2022-12-07T00:20:43;6.50;99.90
10889;DHT22;5497;51.388;6.780;2022-12-07T00:23:10;6.50;99.90
10889;DHT22;5497;51.388;6.780;2022-12-07T00:25:37;6.60;99.90
10889;DHT22;5497;51.388;6.780;2022-12-07T00:28:04;6.50;99.90
10889;DHT22;5497;51.388;6.780;2022-12-07T00:30:34;6.50;99.90
10889;DHT22;5497;51.388;6.780;2022-12-07T00:33:00;6.50;99.90
10889;DHT22;5497;51.388;6.780;2022-12-07T00:35:27;6.50;99.90
10889;DHT22;5497;51.388;6.780;2022-12-07T00:37:54;6.50;99.90
10889;DHT22;5497;51.388;6.780;2022-12-07T00:40:22;6.50;99.90
10889;DHT22;5497;51.388;6.780;2022-12-07T00:42:48;6.50;99.90
10889;DHT22;5497;51.388;6.780;2022-12-07T00:45:15;6.50;99.90
10889;DHT22;5497;51.388;6.780;2022-12-07T00:47:44;6.50;99.90
10889;DHT22;5497;51.388;6.780;2022-12-07T00:50:11;6.50;99.90
10889;DHT22;5497;51.388;6.780;2022-12-07T00:52:38;6.50;99.90
10889;DHT22;5497;51.388;6.780;2022-12-07T00:55:05;7.70;99.90
10889;DHT22;5497;51.388;6.780;2022-12-07T00:57:32;6.50;99.90
10889;DHT22;5497;51.388;6.780;2022-12-07T00:59:59;6.50;99.90
10889;DHT22;5497;51.388;6.780;2022-12-07T01:02:25;6.50;99.90
10889;DHT22;5497;51.388;6.780;2022-12-07T01:04:54;6.50;99.90
10889;DHT22;5497;51.388;6.780;2022-12-07T01:07:21;6.50;99.90
10889;DHT22;5497;51.388;6.780;2022-12-07T01:09:48;6.50;99.90
10889;DHT22;5497;51.388;6.780;2022-12-07T01:12:14;6.50;99.90
10889;DHT22;5497;51.388;6.780;2022-12-07T01:14:41;6.50;99.90
10889;DHT22;5497;51.388;6.780;2022-12-07T01:17:08;6.50;99.90
10889;DHT22;5497;51.388;6.780;2022-12-07T01:19:35;6.50;99.90
10889;DHT22;5497;51.388;6.780;2022-12-07T01:22:04;6.50;99.90
10889;DHT22;5497;51.388;6.780;2022-12-07T01:24:30;6.50;99.90
10889;DHT22;5497;51.388;6.780;2022-12-07T01:26:57;6.50;99.90
10889;DHT22;5497;51.388;6.780;2022-12-07T01:29:24;6.50;99.90
10889;DHT22;5497;51.388;6.780;2022-12-07T01:31:51;6.50;99.90
10889;DHT22;5497;51.388;6.780;2022-12-07T01:34:18;6.50;99.90
10889;DHT22;5497;51.388;6.780;2022-12-07T01:36:45;6.40;99.90
10889;DHT22;5497;51.388;6.780;2022-12-07T01:39:13;6.40;99.90
10889;DHT22;5497;51.388;6.780;2022-12-07T01:41:43;6.40;99.90
10889;DHT22;5497;51.388;6.780;2022-12-07T01:44:12;6.40;99.90
10889;DHT22;5497;51.388;6.780;2022-12-07T01:46:39;6.30;99.90
10889;DHT22;5497;51.388;6.780;2022-12-07T01:49:08;6.30;99.90
10889;DHT22;5497;51.388;6.780;2022-12-07T01:51:35;6.30;99.90
10889;DHT22;5497;51.388;6.780;2022-12-07T01:54:03;6.30;99.90
10889;DHT22;5497;51.388;6.780;2022-12-07T01:56:32;6.40;99.90
10889;DHT22;5497;51.388;6.780;2022-12-07T01:58:59;6.30;99.90
10889;DHT22;5497;51.388;6.780;2022-12-07T02:01:27;6.30;99.90
10889;DHT22;5497;51.388;6.780;2022-12-07T02:03:54;6.20;99.90
10889;DHT22;5497;51.388;6.780;2022-12-07T02:06:22;6.20;99.90
10889;DHT22;5497;51.388;6.780;2022-12-07T02:08:50;6.10;99.90
10889;DHT22;5497;51.388;6.780;2022-12-07T02:11:17;6.00;99.90
10889;DHT22;5497;51.388;6.780;2022-12-07T02:13:49;6.00;99.90
10889;DHT22;5497;51.388;6.780;2022-12-07T02:16:19;6.00;99.90
10889;DHT22;5497;51.388;6.780;2022-12-07T02:18:53;5.90;99.90
10889;DHT22;5497;51.388;6.780;2022-12-07T02:21:23;5.80;99.90
10889;DHT22;5497;51.388;6.780;2022-12-07T02:29:53;5.80;99.90
10889;DHT22;5497;51.388;6.780;2022-12-07T02:32:23;5.80;99.90
10889;DHT22;5497;51.388;6.780;2022-12-07T02:34:52;5.80;99.90
10889;DHT22;5497;51.388;6.780;2022-12-07T02:37:25;5.90;99.90
10889;DHT22;5497;51.388;6.780;2022-12-07T02:39:54;5.90;99.90
10889;DHT22;5497;51.388;6.780;2022-12-07T02:42:23;5.90;99.90
10889;DHT22;5497;51.388;6.780;2022-12-07T02:44:52;5.90;99.90
10889;DHT22;5497;51.388;6.780;2022-12-07T02:47:19;5.90;99.90
10889;DHT22;5497;51.388;6.780;2022-12-07T02:49:48;5.90;99.90
10889;DHT22;5497;51.388;6.780;2022-12-07T02:52:16;5.90;99.90
10889;DHT22;5497;51.388;6.780;2022-12-07T02:54:42;5.90;99.90
10889;DHT22;5497;51.388;6.780;2022-12-07T02:57:14;5.90;99.90
10889;DHT22;5497;51.388;6.780;2022-12-07T03:02:17;5.90;99.90
10889;DHT22;5497;51.388;6.780;2022-12-07T03:04:47;6.00;99.90
10889;DHT22;5497;51.388;6.780;2022-12-07T03:07:21;5.90;99.90
10889;DHT22;5497;51.388;6.780;2022-12-07T03:09:53;5.90;99.90
10889;DHT22;5497;51.388;6.780;2022-12-07T03:12:27;5.90;99.90
10889;DHT22;5497;51.388;6.780;2022-12-07T03:14:57;5.80;99.90
10889;DHT22;5497;51.388;6.780;2022-12-07T03:17:28;5.80;99.90
10889;DHT22;5497;51.388;6.780;2022-12-07T03:19:58;5.70;99.90
10889;DHT22;5497;51.388;6.780;2022-12-07T03:22:27;5.70;99.90
10889;DHT22;5497;51.388;6.780;2022-12-07T03:24:56;5.70;99.90
10889;DHT22;5497;51.388;6.780;2022-12-07T03:27:25;5.60;99.90
10889;DHT22;5497;51.388;6.780;2022-12-07T03:29:54;5.50;99.90
10889;DHT22;5497;51.388;6.780;2022-12-07T03:32:23;5.50;99.90
10889;DHT22;5497;51.388;6.780;2022-12-07T03:34:53;5.50;99.90
10889;DHT22;5497;51.388;6.780;2022-12-07T03:37:25;5.50;99.90
10889;DHT22;5497;51.388;6.780;2022-12-07T03:39:56;5.30;99.90
10889;DHT22;5497;51.388;6.780;2022-12-07T03:42:24;5.30;99.90
10889;DHT22;5497;51.388;6.780;2022-12-07T03:44:51;5.30;99.90
10889;DHT22;5497;51.388;6.780;2022-12-07T03:47:20;5.20;99.90
10889;DHT22;5497;51.388;6.780;2022-12-07T03:49:49;5.10;99.90
10889;DHT22;5497;51.388;6.780;2022-12-07T03:52:20;5.10;99.90
10889;DHT22;5497;51.388;6.780;2022-12-07T03:54:49;5.10;99.90
10889;DHT22;5497;51.388;6.780;2022-12-07T03:57:18;5.10;99.90
10889;DHT22;5497;51.388;6.780;2022-12-07T03:59:46;5.20;99.90
10889;DHT22;5497;51.388;6.780;2022-12-07T04:02:13;5.10;99.90
10889;DHT22;5497;51.388;6.780;2022-12-07T04:04:40;5.20;99.90
10889;DHT22;5497;51.388;6.780;2022-12-07T04:07:08;5.30;99.90
10889;DHT22;5497;51.388;6.780;2022-12-07T04:09:36;5.30;99.90
10889;DHT22;5497;51.388;6.780;2022-12-07T04:12:05;5.40;99.90
10889;DHT22;5497;51.388;6.780;2022-12-07T04:14:32;5.40;99.90
10889;DHT22;5497;51.388;6.780;2022-12-07T04:16:59;5.40;99.90
10889;DHT22;5497;51.388;6.780;2022-12-07T04:19:26;5.40;99.90
10889;DHT22;5497;51.388;6.780;2022-12-07T04:21:54;5.40;99.90
10889;DHT22;5497;51.388;6.780;2022-12-07T04:24:20;5.50;99.90
10889;DHT22;5497;51.388;6.780;2022-12-07T04:26:49;5.50;99.90
10889;DHT22;5497;51.388;6.780;2022-12-07T04:29:16;5.50;99.90
10889;DHT22;5497;51.388;6.780;2022-12-07T04:31:44;5.40;99.90
10889;DHT22;5497;51.388;6.780;2022-12-07T04:34:11;5.40;99.90
10889;DHT22;5497;51.388;6.780;2022-12-07T04:36:40;5.30;99.90
10889;DHT22;5497;51.388;6.780;2022-12-07T04:39:09;5.30;99.90
10889;DHT22;5497;51.388;6.780;2022-12-07T04:41:44;5.20;99.90
10889;DHT22;5497;51.388;6.780;2022-12-07T04:44:14;5.10;99.90
10889;DHT22;5497;51.388;6.780;2022-12-07T04:46:41;5.10;99.90
10889;DHT22;5497;51.388;6.780;2022-12-07T04:49:08;5.00;99.90
10889;DHT22;5497;51.388;6.780;2022-12-07T04:51:36;5.00;99.90
10889;DHT22;5497;51.388;6.780;2022-12-07T04:54:02;5.10;99.90
10889;DHT22;5497;51.388;6.780;2022-12-07T04:56:29;6.50;99.90
10889;DHT22;5497;51.388;6.780;2022-12-07T04:58:56;5.10;99.90
10889;DHT22;5497;51.388;6.780;2022-12-07T05:01:24;5.10;99.90
10889;DHT22;5497;51.388;6.780;2022-12-07T05:03:51;5.10;99.90
10889;DHT22;5497;51.388;6.780;2022-12-07T05:06:18;5.20;99.90
10889;DHT22;5497;51.388;6.780;2022-12-07T05:08:45;5.20;99.90
10889;DHT22;5497;51.388;6.780;2022-12-07T05:11:12;5.20;99.90
10889;DHT22;5497;51.388;6.780;2022-12-07T05:13:59;5.20;99.90
10889;DHT22;5497;51.388;6.780;2022-12-07T05:16:28;5.30;99.90
10889;DHT22;5497;51.388;6.780;2022-12-07T05:18:55;5.30;99.90
10889;DHT22;5497;51.388;6.780;2022-12-07T05:21:22;5.20;99.90
10889;DHT22;5497;51.388;6.780;2022-12-07T05:23:49;5.20;99.90
10889;DHT22;5497;51.388;6.780;2022-12-07T05:26:16;5.30;99.90
10889;DHT22;5497;51.388;6.780;2022-12-07T05:28:43;5.20;99.90
10889;DHT22;5497;51.388;6.780;2022-12-07T05:31:11;5.20;99.90
10889;DHT22;5497;51.388;6.780;2022-12-07T05:33:39;5.30;99.90
10889;DHT22;5497;51.388;6.780;2022-12-07T05:36:06;5.30;99.90
10889;DHT22;5497;51.388;6.780;2022-12-07T05:38:33;5.30;99.90
10889;DHT22;5497;51.388;6.780;2022-12-07T05:41:00;5.30;99.90
10889;DHT22;5497;51.388;6.780;2022-12-07T05:43:28;5.30;99.90
10889;DHT22;5497;51.388;6.780;2022-12-07T05:45:54;5.30;99.90
10889;DHT22;5497;51.388;6.780;2022-12-07T05:48:20;5.30;99.90
10889;DHT22;5497;51.388;6.780;2022-12-07T05:50:49;5.30;99.90
10889;DHT22;5497;51.388;6.780;2022-12-07T05:53:17;5.40;99.90
10889;DHT22;5497;51.388;6.780;2022-12-07T05:55:48;5.40;99.90
10889;DHT22;5497;51.388;6.780;2022-12-07T05:58:23;5.40;99.90
10889;DHT22;5497;51.388;6.780;2022-12-07T06:01:22;5.40;99.90
10889;DHT22;5497;51.388;6.780;2022-12-07T06:03:55;5.40;99.90
10889;DHT22;5497;51.388;6.780;2022-12-07T06:06:23;5.50;99.90
10889;DHT22;5497;51.388;6.780;2022-12-07T06:08:50;5.50;99.90
10889;DHT22;5497;51.388;6.780;2022-12-07T06:11:18;5.50;99.90
10889;DHT22;5497;51.388;6.780;2022-12-07T06:14:03;5.40;99.90
10889;DHT22;5497;51.388;6.780;2022-12-07T06:16:32;5.40;99.90
10889;DHT22;5497;51.388;6.780;2022-12-07T06:18:59;5.40;99.90
10889;DHT22;5497;51.388;6.780;2022-12-07T06:21:27;5.40;99.90
10889;DHT22;5497;51.388;6.780;2022-12-07T06:23:54;5.30;99.90
10889;DHT22;5497;51.388;6.780;2022-12-07T06:26:21;5.40;99.90
10889;DHT22;5497;51.388;6.780;2022-12-07T06:28:48;5.40;99.90
10889;DHT22;5497;51.388;6.780;2022-12-07T06:31:15;5.30;99.90
10889;DHT22;5497;51.388;6.780;2022-12-07T06:33:41;5.30;99.90
10889;DHT22;5497;51.388;6.780;2022-12-07T06:36:09;5.30;99.90
10889;DHT22;5497;51.388;6.780;2022-12-07T06:38:37;5.30;99.90
10889;DHT22;5497;51.388;6.780;2022-12-07T06:41:04;5.30;99.90
10889;DHT22;5497;51.388;6.780;2022-12-07T06:43:32;5.30;99.90
10889;DHT22;5497;51.388;6.780;2022-12-07T06:45:58;5.30;99.90
10889;DHT22;5497;51.388;6.780;2022-12-07T06:48:25;6.20;99.90
10889;DHT22;5497;51.388;6.780;2022-12-07T06:50:53;5.30;99.90
10889;DHT22;5497;51.388;6.780;2022-12-07T06:53:20;5.20;99.90
10889;DHT22;5497;51.388;6.780;2022-12-07T06:55:48;5.20;99.90
10889;DHT22;5497;51.388;6.780;2022-12-07T06:58:15;5.20;99.90
10889;DHT22;5497;51.388;6.780;2022-12-07T07:00:42;5.10;99.90
10889;DHT22;5497;51.388;6.780;2022-12-07T07:03:09;5.10;99.90
10889;DHT22;5497;51.388;6.780;2022-12-07T07:05:36;5.10;99.90
10889;DHT22;5497;51.388;6.780;2022-12-07T07:08:03;5.20;99.90
10889;DHT22;5497;51.388;6.780;2022-12-07T07:10:30;5.20;99.90
10889;DHT22;5497;51.388;6.780;2022-12-07T07:12:58;5.20;99.90
10889;DHT22;5497;51.388;6.780;2022-12-07T07:15:25;5.20;99.90
10889;DHT22;5497;51.388;6.780;2022-12-07T07:17:52;5.20;99.90
10889;DHT22;5497;51.388;6.780;2022-12-07T07:20:19;5.20;99.90
10889;DHT22;5497;51.388;6.780;2022-12-07T07:22:46;5.10;99.90
10889;DHT22;5497;51.388;6.780;2022-12-07T07:25:13;5.10;99.90
10889;DHT22;5497;51.388;6.780;2022-12-07T07:27:40;5.10;99.90
10889;DHT22;5497;51.388;6.780;2022-12-07T07:30:09;5.10;99.90
10889;DHT22;5497;51.388;6.780;2022-12-07T07:32:36;5.10;99.90
10889;DHT22;5497;51.388;6.780;2022-12-07T07:35:05;5.10;99.90
10889;DHT22;5497;51.388;6.780;2022-12-07T07:37:32;5.10;99.90
10889;DHT22;5497;51.388;6.780;2022-12-07T07:39:59;5.00;99.90
10889;DHT22;5497;51.388;6.780;2022-12-07T07:42:26;5.00;99.90
10889;DHT22;5497;51.388;6.780;2022-12-07T07:44:53;5.00;99.90
10889;DHT22;5497;51.388;6.780;2022-12-07T07:47:21;5.00;99.90
10889;DHT22;5497;51.388;6.780;2022-12-07T07:52:15;5.10;99.90
10889;DHT22;5497;51.388;6.780;2022-12-07T07:54:42;5.10;99.90
10889;DHT22;5497;51.388;6.780;2022-12-07T07:57:12;5.00;99.90
10889;DHT22;5497;51.388;6.780;2022-12-07T07:59:39;5.00;99.90
10889;DHT22;5497;51.388;6.780;2022-12-07T08:02:08;5.00;99.90
10889;DHT22;5497;51.388;6.780;2022-12-07T08:04:37;4.90;99.90
10889;DHT22;5497;51.388;6.780;2022-12-07T08:07:04;4.90;99.90
10889;DHT22;5497;51.388;6.780;2022-12-07T08:09:31;4.90;99.90
10889;DHT22;5497;51.388;6.780;2022-12-07T08:11:58;4.90;99.90
10889;DHT22;5497;51.388;6.780;2022-12-07T08:14:26;5.00;99.90
10889;DHT22;5497;51.388;6.780;2022-12-07T08:16:54;5.00;99.90
10889;DHT22;5497;51.388;6.780;2022-12-07T08:19:21;5.10;99.90
10889;DHT22;5497;51.388;6.780;2022-12-07T08:21:50;5.20;99.90
10889;DHT22;5497;51.388;6.780;2022-12-07T08:24:17;5.20;99.90
10889;DHT22;5497;51.388;6.780;2022-12-07T08:26:45;5.30;99.90
10889;DHT22;5497;51.388;6.780;2022-12-07T08:29:11;5.40;99.90
10889;DHT22;5497;51.388;6.780;2022-12-07T08:31:38;5.40;99.90
10889;DHT22;5497;51.388;6.780;2022-12-07T08:34:05;5.40;99.90
10889;DHT22;5497;51.388;6.780;2022-12-07T08:36:32;5.40;99.90
10889;DHT22;5497;51.388;6.780;2022-12-07T08:39:01;5.30;99.90
10889;DHT22;5497;51.388;6.780;2022-12-07T08:41:28;5.30;99.90
10889;DHT22;5497;51.388;6.780;2022-12-07T08:43:54;5.20;99.90
10889;DHT22;5497;51.388;6.780;2022-12-07T08:46:23;5.20;99.90
10889;DHT22;5497;51.388;6.780;2022-12-07T08:48:53;5.20;99.90
10889;DHT22;5497;51.388;6.780;2022-12-07T08:51:20;5.20;99.90
10889;DHT22;5497;51.388;6.780;2022-12-07T08:53:48;5.20;99.90
10889;DHT22;5497;51.388;6.780;2022-12-07T08:56:17;5.30;99.90
10889;DHT22;5497;51.388;6.780;2022-12-07T08:58:44;5.50;99.90
10889;DHT22;5497;51.388;6.780;2022-12-07T09:01:11;5.70;99.90
10889;DHT22;5497;51.388;6.780;2022-12-07T09:03:38;5.90;99.90
10889;DHT22;5497;51.388;6.780;2022-12-07T09:06:06;5.90;99.90
10889;DHT22;5497;51.388;6.780;2022-12-07T09:08:34;5.90;99.90
10889;DHT22;5497;51.388;6.780;2022-12-07T09:11:02;5.90;99.90
10889;DHT22;5497;51.388;6.780;2022-12-07T09:13:31;5.80;99.90
10889;DHT22;5497;51.388;6.780;2022-12-07T09:15:58;5.80;99.90
10889;DHT22;5497;51.388;6.780;2022-12-07T09:18:27;5.80;99.90
10889;DHT22;5497;51.388;6.780;2022-12-07T09:20:55;6.00;99.90
10889;DHT22;5497;51.388;6.780;2022-12-07T09:23:22;6.30;99.90
10889;DHT22;5497;51.388;6.780;2022-12-07T09:25:49;6.60;99.90
10889;DHT22;5497;51.388;6.780;2022-12-07T09:28:16;6.90;99.90
10889;DHT22;5497;51.388;6.780;2022-12-07T09:30:46;7.10;99.90
10889;DHT22;5497;51.388;6.780;2022-12-07T09:33:13;7.20;99.90
10889;DHT22;5497;51.388;6.780;2022-12-07T09:35:43;7.20;99.90
10889;DHT22;5497;51.388;6.780;2022-12-07T09:38:10;7.20;99.90
10889;DHT22;5497;51.388;6.780;2022-12-07T09:40:37;7.30;99.90
10889;DHT22;5497;51.388;6.780;2022-12-07T09:43:04;7.30;99.90
10889;DHT22;5497;51.388;6.780;2022-12-07T09:45:32;7.30;99.90
10889;DHT22;5497;51.388;6.780;2022-12-07T09:48:02;7.30;99.90
10889;DHT22;5497;51.388;6.780;2022-12-07T09:50:29;7.20;99.90
10889;DHT22;5497;51.388;6.780;2022-12-07T09:53:02;7.20;99.90
10889;DHT22;5497;51.388;6.780;2022-12-07T09:55:31;7.00;99.90
10889;DHT22;5497;51.388;6.780;2022-12-07T09:58:00;7.00;99.90
10889;DHT22;5497;51.388;6.780;2022-12-07T10:00:27;7.00;99.90
10889;DHT22;5497;51.388;6.780;2022-12-07T10:02:55;7.00;99.90
10889;DHT22;5497;51.388;6.780;2022-12-07T10:05:24;7.10;99.90
10889;DHT22;5497;51.388;6.780;2022-12-07T10:07:52;7.20;99.90
10889;DHT22;5497;51.388;6.780;2022-12-07T10:10:20;7.40;99.90
10889;DHT22;5497;51.388;6.780;2022-12-07T10:12:53;7.50;99.90
10889;DHT22;5497;51.388;6.780;2022-12-07T10:15:20;7.50;99.90
10889;DHT22;5497;51.388;6.780;2022-12-07T10:17:47;7.60;99.90
10889;DHT22;5497;51.388;6.780;2022-12-07T10:20:20;7.60;99.90
10889;DHT22;5497;51.388;6.780;2022-12-07T10:23:02;7.60;99.90
10889;DHT22;5497;51.388;6.780;2022-12-07T10:25:31;7.50;99.90
10889;DHT22;5497;51.388;6.780;2022-12-07T10:28:01;7.50;99.90
10889;DHT22;5497;51.388;6.780;2022-12-07T10:30:29;7.50;99.90
10889;DHT22;5497;51.388;6.780;2022-12-07T10:32:56;7.70;99.90
10889;DHT22;5497;51.388;6.780;2022-12-07T10:35:24;7.90;99.90
10889;DHT22;5497;51.388;6.780;2022-12-07T10:37:51;8.10;99.90
10889;DHT22;5497;51.388;6.780;2022-12-07T10:40:28;8.20;99.90
10889;DHT22;5497;51.388;6.780;2022-12-07T10:43:02;8.40;99.90
10889;DHT22;5497;51.388;6.780;2022-12-07T10:45:29;8.40;99.90
10889;DHT22;5497;51.388;6.780;2022-12-07T10:47:58;8.40;99.90
10889;DHT22;5497;51.388;6.780;2022-12-07T10:50:36;8.40;99.90
10889;DHT22;5497;51.388;6.780;2022-12-07T10:53:09;8.30;99.90
10889;DHT22;5497;51.388;6.780;2022-12-07T10:55:45;8.40;99.90
10889;DHT22;5497;51.388;6.780;2022-12-07T10:58:28;8.40;99.90
10889;DHT22;5497;51.388;6.780;2022-12-07T11:00:59;8.40;99.90
10889;DHT22;5497;51.388;6.780;2022-12-07T11:03:37;8.40;99.90
10889;DHT22;5497;51.388;6.780;2022-12-07T11:06:11;8.50;99.90
10889;DHT22;5497;51.388;6.780;2022-12-07T11:08:44;8.70;99.90
10889;DHT22;5497;51.388;6.780;2022-12-07T11:11:19;8.80;99.90
10889;DHT22;5497;51.388;6.780;2022-12-07T11:13:51;8.80;99.90
10889;DHT22;5497;51.388;6.780;2022-12-07T11:16:21;8.80;99.90
10889;DHT22;5497;51.388;6.780;2022-12-07T11:19:04;8.70;99.90
10889;DHT22;5497;51.388;6.780;2022-12-07T11:21:35;8.60;99.90
10889;DHT22;5497;51.388;6.780;2022-12-07T11:24:06;8.60;99.90
10889;DHT22;5497;51.388;6.780;2022-12-07T11:26:41;8.60;99.90
10889;DHT22;5497;51.388;6.780;2022-12-07T11:29:25;8.60;99.90
10889;DHT22;5497;51.388;6.780;2022-12-07T11:31:58;8.60;99.90
10889;DHT22;5497;51.388;6.780;2022-12-07T11:34:37;8.60;99.90
10889;DHT22;5497;51.388;6.780;2022-12-07T11:37:07;8.70;99.90
10889;DHT22;5497;51.388;6.780;2022-12-07T11:39:39;8.70;99.90
10889;DHT22;5497;51.388;6.780;2022-12-07T11:42:12;9.90;99.90
10889;DHT22;5497;51.388;6.780;2022-12-07T11:44:44;8.80;99.90
10889;DHT22;5497;51.388;6.780;2022-12-07T11:47:15;8.90;99.90
10889;DHT22;5497;51.388;6.780;2022-12-07T11:49:44;8.90;99.90
10889;DHT22;5497;51.388;6.780;2022-12-07T11:52:16;8.90;99.90
10889;DHT22;5497;51.388;6.780;2022-12-07T11:54:44;8.90;99.90
10889;DHT22;5497;51.388;6.780;2022-12-07T11:57:14;8.80;99.90
10889;DHT22;5497;51.388;6.780;2022-12-07T11:59:45;8.80;99.90
10889;DHT22;5497;51.388;6.780;2022-12-07T12:02:15;8.80;99.90
10889;DHT22;5497;51.388;6.780;2022-12-07T12:04:47;8.80;99.90
10889;DHT22;5497;51.388;6.780;2022-12-07T12:07:19;8.80;99.90
10889;DHT22;5497;51.388;6.780;2022-12-07T12:09:48;8.80;99.90
10889;DHT22;5497;51.388;6.780;2022-12-07T12:12:31;8.70;99.90
10889;DHT22;5497;51.388;6.780;2022-12-07T12:15:08;8.70;99.90
10889;DHT22;5497;51.388;6.780;2022-12-07T12:17:44;8.70;99.90
10889;DHT22;5497;51.388;6.780;2022-12-07T12:20:16;8.80;99.90
10889;DHT22;5497;51.388;6.780;2022-12-07T12:22:47;8.70;99.90
10889;DHT22;5497;51.388;6.780;2022-12-07T12:25:18;8.80;99.90
10889;DHT22;5497;51.388;6.780;2022-12-07T12:27:48;9.20;99.90
10889;DHT22;5497;51.388;6.780;2022-12-07T12:30:32;8.80;99.90
10889;DHT22;5497;51.388;6.780;2022-12-07T12:33:03;8.80;99.90
10889;DHT22;5497;51.388;6.780;2022-12-07T12:35:31;8.80;99.90
10889;DHT22;5497;51.388;6.780;2022-12-07T12:40:57;8.70;99.90
10889;DHT22;5497;51.388;6.780;2022-12-07T12:43:44;8.70;99.90
10889;DHT22;5497;51.388;6.780;2022-12-07T12:46:36;8.60;99.90
10889;DHT22;5497;51.388;6.780;2022-12-07T12:51:45;8.30;99.90
10889;DHT22;5497;51.388;6.780;2022-12-07T12:54:14;8.20;99.90
10889;DHT22;5497;51.388;6.780;2022-12-07T12:56:43;8.10;99.90
10889;DHT22;5497;51.388;6.780;2022-12-07T12:59:25;8.10;99.90
10889;DHT22;5497;51.388;6.780;2022-12-07T13:01:54;8.10;99.90
10889;DHT22;5497;51.388;6.780;2022-12-07T13:07:03;8.20;99.90
10889;DHT22;5497;51.388;6.780;2022-12-07T13:09:30;8.20;99.90
10889;DHT22;5497;51.388;6.780;2022-12-07T13:12:00;8.20;99.90
10889;DHT22;5497;51.388;6.780;2022-12-07T13:20:39;8.20;99.90
10889;DHT22;5497;51.388;6.780;2022-12-07T13:23:06;8.20;99.90
10889;DHT22;5497;51.388;6.780;2022-12-07T13:25:35;8.20;99.90
10889;DHT22;5497;51.388;6.780;2022-12-07T13:28:09;8.20;99.90
10889;DHT22;5497;51.388;6.780;2022-12-07T13:30:40;8.20;99.90
10889;DHT22;5497;51.388;6.780;2022-12-07T13:33:09;8.30;99.90
10889;DHT22;5497;51.388;6.780;2022-12-07T13:35:37;8.30;99.90
10889;DHT22;5497;51.388;6.780;2022-12-07T13:38:05;8.30;99.90
10889;DHT22;5497;51.388;6.780;2022-12-07T13:40:33;8.20;99.90
10889;DHT22;5497;51.388;6.780;2022-12-07T13:43:04;8.10;99.90
10889;DHT22;5497;51.388;6.780;2022-12-07T13:45:31;8.10;99.90
10889;DHT22;5497;51.388;6.780;2022-12-07T13:48:19;8.10;99.90
10889;DHT22;5497;51.388;6.780;2022-12-07T13:50:53;8.10;99.90
10889;DHT22;5497;51.388;6.780;2022-12-07T13:53:21;8.10;99.90
10889;DHT22;5497;51.388;6.780;2022-12-07T13:55:48;8.10;99.90
10889;DHT22;5497;51.388;6.780;2022-12-07T13:58:15;8.00;99.90
10889;DHT22;5497;51.388;6.780;2022-12-07T14:00:42;8.20;99.90
10889;DHT22;5497;51.388;6.780;2022-12-07T14:03:30;7.90;99.90
10889;DHT22;5497;51.388;6.780;2022-12-07T14:06:19;7.90;99.90
10889;DHT22;5497;51.388;6.780;2022-12-07T14:08:47;7.80;99.90
10889;DHT22;5497;51.388;6.780;2022-12-07T14:11:16;7.70;99.90
10889;DHT22;5497;51.388;6.780;2022-12-07T14:13:56;7.70;99.90
10889;DHT22;5497;51.388;6.780;2022-12-07T14:16:25;7.60;99.90
10889;DHT22;5497;51.388;6.780;2022-12-07T14:18:54;7.50;99.90
10889;DHT22;5497;51.388;6.780;2022-12-07T14:21:23;7.40;99.90
10889;DHT22;5497;51.388;6.780;2022-12-07T14:26:45;7.20;99.90
10889;DHT22;5497;51.388;6.780;2022-12-07T14:29:19;7.20;99.90
10889;DHT22;5497;51.388;6.780;2022-12-07T14:31:46;7.10;99.90
10889;DHT22;5497;51.388;6.780;2022-12-07T14:34:13;7.00;99.90
10889;DHT22;5497;51.388;6.780;2022-12-07T14:36:41;6.90;99.90
10889;DHT22;5497;51.388;6.780;2022-12-07T14:39:08;6.90;99.90
10889;DHT22;5497;51.388;6.780;2022-12-07T14:41:35;6.80;99.90
10889;DHT22;5497;51.388;6.780;2022-12-07T14:44:17;6.70;99.90
10889;DHT22;5497;51.388;6.780;2022-12-07T14:46:45;6.70;99.90
10889;DHT22;5497;51.388;6.780;2022-12-07T14:49:12;6.60;99.90
10889;DHT22;5497;51.388;6.780;2022-12-07T14:51:39;6.60;99.90
10889;DHT22;5497;51.388;6.780;2022-12-07T14:54:09;6.60;99.90
10889;DHT22;5497;51.388;6.780;2022-12-07T14:56:38;6.50;99.90
10889;DHT22;5497;51.388;6.780;2022-12-07T14:59:06;6.40;99.90
10889;DHT22;5497;51.388;6.780;2022-12-07T15:01:33;6.40;99.90
10889;DHT22;5497;51.388;6.780;2022-12-07T15:04:00;6.30;99.90
10889;DHT22;5497;51.388;6.780;2022-12-07T15:06:27;6.30;99.90
10889;DHT22;5497;51.388;6.780;2022-12-07T15:08:55;6.20;99.90
10889;DHT22;5497;51.388;6.780;2022-12-07T15:11:23;6.20;99.90
10889;DHT22;5497;51.388;6.780;2022-12-07T15:13:50;6.10;99.90
10889;DHT22;5497;51.388;6.780;2022-12-07T15:16:37;6.10;99.90
10889;DHT22;5497;51.388;6.780;2022-12-07T15:19:05;6.00;99.90
10889;DHT22;5497;51.388;6.780;2022-12-07T15:21:32;5.90;99.90
10889;DHT22;5497;51.388;6.780;2022-12-07T15:23:59;5.90;99.90
10889;DHT22;5497;51.388;6.780;2022-12-07T15:26:27;5.90;99.90
10889;DHT22;5497;51.388;6.780;2022-12-07T15:28:54;5.80;99.90
10889;DHT22;5497;51.388;6.780;2022-12-07T15:31:21;5.80;99.90
10889;DHT22;5497;51.388;6.780;2022-12-07T15:33:48;5.80;99.90
10889;DHT22;5497;51.388;6.780;2022-12-07T15:36:18;5.80;99.90
10889;DHT22;5497;51.388;6.780;2022-12-07T15:38:46;5.80;99.90
10889;DHT22;5497;51.388;6.780;2022-12-07T15:41:13;5.80;99.90
10889;DHT22;5497;51.388;6.780;2022-12-07T15:43:41;5.80;99.90
10889;DHT22;5497;51.388;6.780;2022-12-07T15:46:29;5.90;99.90
10889;DHT22;5497;51.388;6.780;2022-12-07T15:48:56;5.80;99.90
10889;DHT22;5497;51.388;6.780;2022-12-07T15:51:23;5.90;99.90
10889;DHT22;5497;51.388;6.780;2022-12-07T15:53:50;6.00;99.90
10889;DHT22;5497;51.388;6.780;2022-12-07T15:56:17;6.00;99.90
10889;DHT22;5497;51.388;6.780;2022-12-07T15:58:45;6.10;99.90
10889;DHT22;5497;51.388;6.780;2022-12-07T16:01:13;6.10;99.90
10889;DHT22;5497;51.388;6.780;2022-12-07T16:03:40;6.20;99.90
10889;DHT22;5497;51.388;6.780;2022-12-07T16:06:07;6.20;99.90
10889;DHT22;5497;51.388;6.780;2022-12-07T16:08:34;6.20;99.90
10889;DHT22;5497;51.388;6.780;2022-12-07T16:11:04;6.30;99.90
10889;DHT22;5497;51.388;6.780;2022-12-07T16:13:31;6.30;99.90
10889;DHT22;5497;51.388;6.780;2022-12-07T16:16:02;6.40;99.90
10889;DHT22;5497;51.388;6.780;2022-12-07T16:18:30;6.40;99.90
10889;DHT22;5497;51.388;6.780;2022-12-07T16:20:57;6.40;99.90
10889;DHT22;5497;51.388;6.780;2022-12-07T16:23:24;6.40;99.90
10889;DHT22;5497;51.388;6.780;2022-12-07T16:25:51;6.40;99.90
10889;DHT22;5497;51.388;6.780;2022-12-07T16:28:18;6.40;99.90
10889;DHT22;5497;51.388;6.780;2022-12-07T16:30:45;6.40;99.90
10889;DHT22;5497;51.388;6.780;2022-12-07T16:33:13;6.40;99.90
10889;DHT22;5497;51.388;6.780;2022-12-07T16:35:40;6.40;99.90
10889;DHT22;5497;51.388;6.780;2022-12-07T16:38:08;6.50;99.90
10889;DHT22;5497;51.388;6.780;2022-12-07T16:40:37;6.50;99.90
10889;DHT22;5497;51.388;6.780;2022-12-07T16:43:04;6.50;99.90